createdAt,value
2019-04-25T00:01:12.352Z,9.04
2019-04-25T00:03:43.669Z,9.02
2019-04-25T00:06:15.747Z,9.06
2019-04-25T00:08:46.046Z,9.09
2019-04-25T00:11:16.652Z,9.11
2019-04-25T00:13:47.873Z,9.11
2019-04-25T00:16:21.573Z,9.05
2019-04-25T00:18:52.136Z,9.03
2019-04-25T00:21:44.589Z,8.94
2019-04-25T00:24:39.606Z,8.94
2019-04-25T00:27:09.971Z,8.92
2019-04-25T00:29:40.991Z,8.89
2019-04-25T00:32:12.576Z,8.78
2019-04-25T00:34:45.434Z,8.78
2019-04-25T00:37:16.172Z,8.88
2019-04-25T00:39:47.486Z,8.94
2019-04-25T00:42:18.072Z,8.97
2019-04-25T00:44:49.429Z,8.83
2019-04-25T00:47:21.666Z,8.85
2019-04-25T00:49:53.274Z,8.76
2019-04-25T00:52:25.321Z,8.79
2019-04-25T00:55:01.916Z,8.72
2019-04-25T00:57:34.304Z,8.73
2019-04-25T01:00:22.195Z,8.72
2019-04-25T01:02:53.487Z,8.72
2019-04-25T01:05:27.893Z,8.60
2019-04-25T01:08:02.104Z,8.60
2019-04-25T01:10:31.578Z,8.60
2019-04-25T01:13:03.075Z,8.50
2019-04-25T01:15:35.806Z,8.34
2019-04-25T01:18:06.641Z,8.28
2019-04-25T01:20:38.734Z,8.26
2019-04-25T01:23:09.125Z,8.25
2019-04-25T01:25:42.692Z,8.19
2019-04-25T01:28:13.154Z,8.15
2019-04-25T01:30:46.283Z,8.05
2019-04-25T01:33:16.771Z,8.13
2019-04-25T01:35:55.780Z,8.25
2019-04-25T01:38:31.207Z,8.32
2019-04-25T01:41:20.476Z,8.25
2019-04-25T01:43:59.681Z,8.27
2019-04-25T01:46:29.970Z,8.28
2019-04-25T01:51:37.393Z,8.41
2019-04-25T01:54:10.821Z,8.35
2019-04-25T01:56:41.166Z,8.35
2019-04-25T01:59:11.754Z,8.37
2019-04-25T02:01:42.181Z,8.34
2019-04-25T02:04:13.345Z,8.35
2019-04-25T02:06:43.626Z,8.33
2019-04-25T02:09:14.668Z,8.22
2019-04-25T02:11:54.393Z,8.16
2019-04-25T02:14:24.841Z,8.18
2019-04-25T02:16:56.266Z,8.22
2019-04-25T02:19:28.825Z,8.20
2019-04-25T02:21:59.880Z,8.23
2019-04-25T02:24:33.911Z,8.22
2019-04-25T02:27:04.740Z,8.37
2019-04-25T02:29:37.618Z,8.41
2019-04-25T02:32:09.145Z,8.45
2019-04-25T02:34:39.750Z,8.42
2019-04-25T02:37:10.622Z,8.48
2019-04-25T02:39:41.158Z,8.45
2019-04-25T02:42:16.209Z,8.42
2019-04-25T02:44:48.571Z,8.42
2019-04-25T02:47:46.970Z,8.53
2019-04-25T02:50:44.090Z,8.53
2019-04-25T02:53:36.515Z,8.71
2019-04-25T02:56:07.915Z,8.80
2019-04-25T02:58:35.821Z,8.84
2019-04-25T03:01:18.033Z,8.81
2019-04-25T03:03:47.277Z,8.81
2019-04-25T03:06:15.707Z,8.82
2019-04-25T03:08:45.981Z,8.82
2019-04-25T03:11:18.147Z,8.81
2019-04-25T03:13:48.624Z,8.86
2019-04-25T03:16:21.275Z,9.02
2019-04-25T03:19:02.921Z,8.99
2019-04-25T03:21:35.283Z,8.99
2019-04-25T03:24:10.228Z,9.07
2019-04-25T03:26:40.633Z,9.15
2019-04-25T03:29:09.948Z,9.14
2019-04-25T03:31:40.894Z,9.08
2019-04-25T03:34:15.994Z,9.06
2019-04-25T03:36:44.604Z,9.07
2019-04-25T03:39:16.498Z,9.07
2019-04-25T03:41:47.973Z,9.06
2019-04-25T03:44:18.224Z,8.97
2019-04-25T03:46:48.990Z,9.01
2019-04-25T03:49:19.304Z,8.99
2019-04-25T03:51:51.701Z,9.09
2019-04-25T03:54:23.136Z,9.03
2019-04-25T03:56:56.145Z,9.05
2019-04-25T03:59:27.524Z,9.07
2019-04-25T04:02:01.172Z,9.07
2019-04-25T04:04:33.383Z,9.12
2019-04-25T04:07:08.321Z,9.22
2019-04-25T04:09:36.581Z,9.28
2019-04-25T04:12:07.986Z,9.38
2019-04-25T04:14:38.630Z,9.33
2019-04-25T04:17:16.055Z,9.36
2019-04-25T04:19:53.795Z,9.26
2019-04-25T04:22:30.786Z,9.16
2019-04-25T04:25:01.220Z,9.19
2019-04-25T04:27:31.868Z,9.31
2019-04-25T04:30:04.113Z,9.21
2019-04-25T04:32:34.786Z,9.28
2019-04-25T04:35:05.414Z,9.39
2019-04-25T04:37:36.441Z,9.58
2019-04-25T04:40:08.040Z,9.61
2019-04-25T04:42:40.060Z,9.58
2019-04-25T04:45:10.489Z,9.54
2019-04-25T04:47:43.326Z,9.58
2019-04-25T04:50:15.219Z,9.61
2019-04-25T04:52:46.175Z,9.63
2019-04-25T04:55:18.303Z,9.75
2019-04-25T04:57:49.273Z,9.88
2019-04-25T05:00:19.895Z,9.96
2019-04-25T05:03:07.404Z,10.05
2019-04-25T05:06:11.681Z,10.14
2019-04-25T05:08:46.223Z,10.22
2019-04-25T05:11:18.167Z,10.31
2019-04-25T05:14:04.023Z,10.45
2019-04-25T05:16:33.687Z,10.63
2019-04-25T05:19:03.979Z,10.80
2019-04-25T05:21:34.596Z,10.91
2019-04-25T05:24:04.859Z,11.05
2019-04-25T05:26:35.206Z,11.13
2019-04-25T05:29:05.740Z,11.19
2019-04-25T05:31:46.171Z,11.23
2019-04-25T05:34:17.232Z,11.25
2019-04-25T05:36:48.908Z,11.34
2019-04-25T05:39:20.281Z,11.39
2019-04-25T05:42:18.529Z,11.48
2019-04-25T05:44:49.095Z,11.64
2019-04-25T05:47:22.332Z,11.91
2019-04-25T05:49:54.125Z,12.16
2019-04-25T05:52:25.245Z,12.34
2019-04-25T05:54:56.338Z,12.44
2019-04-25T05:57:26.969Z,12.47
2019-04-25T05:59:57.738Z,12.52
2019-04-25T06:02:28.045Z,12.51
2019-04-25T06:04:58.486Z,12.61
2019-04-25T06:07:29.112Z,12.58
2019-04-25T06:10:26.735Z,12.68
2019-04-25T06:13:15.153Z,12.81
2019-04-25T06:15:47.525Z,12.91
2019-04-25T06:18:33.881Z,13.01
2019-04-25T06:21:07.479Z,13.12
2019-04-25T06:24:13.297Z,13.17
2019-04-25T06:26:51.917Z,13.33
2019-04-25T06:29:23.936Z,13.56
2019-04-25T06:32:05.616Z,13.69
2019-04-25T06:34:31.678Z,14.02
2019-04-25T06:37:04.247Z,14.19
2019-04-25T06:39:34.154Z,14.36
2019-04-25T06:42:04.829Z,14.29
2019-04-25T06:44:40.332Z,14.22
2019-04-25T06:47:27.551Z,14.22
2019-04-25T06:49:59.945Z,14.11
2019-04-25T06:52:34.422Z,13.91
2019-04-25T06:55:04.997Z,13.89
2019-04-25T06:57:35.332Z,13.83
2019-04-25T07:00:07.928Z,14.04
2019-04-25T07:02:39.932Z,14.43
2019-04-25T07:05:26.178Z,14.63
2019-04-25T07:07:48.218Z,14.76
2019-04-25T07:10:19.013Z,14.98
2019-04-25T07:12:49.352Z,15.31
2019-04-25T07:15:19.822Z,15.79
2019-04-25T07:17:50.293Z,16.16
2019-04-25T07:20:20.960Z,16.15
2019-04-25T07:22:51.294Z,16.14
2019-04-25T07:25:26.350Z,16.85
2019-04-25T07:28:29.010Z,17.13
2019-04-25T07:31:33.508Z,16.69
2019-04-25T07:34:13.294Z,17.08
2019-04-25T07:36:45.552Z,16.87
2019-04-25T07:39:16.746Z,16.31
2019-04-25T07:41:47.577Z,15.78
2019-04-25T07:44:22.005Z,15.43
2019-04-25T07:46:51.196Z,15.36
2019-04-25T07:49:23.453Z,15.22
2019-04-25T07:51:54.159Z,15.31
2019-04-25T07:54:26.423Z,15.18
2019-04-25T07:56:56.582Z,15.26
2019-04-25T07:59:27.775Z,15.29
2019-04-25T08:01:58.454Z,15.23
2019-04-25T08:04:29.062Z,15.37
2019-04-25T08:06:59.694Z,16.55
2019-04-25T08:09:30.321Z,16.51
2019-04-25T08:12:00.896Z,16.39
2019-04-25T08:14:45.971Z,17.64
2019-04-25T08:17:18.959Z,22.45
2019-04-25T08:19:49.748Z,25.93
2019-04-25T08:22:20.460Z,28.39
2019-04-25T08:24:51.090Z,28.77
2019-04-25T08:27:23.161Z,30.17
2019-04-25T08:29:54.262Z,29.68
2019-04-25T08:32:25.406Z,30.52
2019-04-25T08:34:55.942Z,29.99
2019-04-25T08:37:26.262Z,30.53
2019-04-25T08:39:56.608Z,28.45
2019-04-25T08:42:27.199Z,25.50
2019-04-25T08:44:57.819Z,24.21
2019-04-25T08:47:28.297Z,23.62
2019-04-25T08:50:08.306Z,21.75
2019-04-25T08:52:38.695Z,21.75
2019-04-25T08:55:15.067Z,21.09
2019-04-25T08:57:55.139Z,20.75
2019-04-25T09:00:38.331Z,20.43
2019-04-25T09:03:12.163Z,20.39
2019-04-25T09:05:46.260Z,20.25
2019-04-25T09:08:17.346Z,22.58
2019-04-25T09:13:23.830Z,27.27
2019-04-25T09:15:56.635Z,25.77
2019-04-25T09:18:27.213Z,22.74
2019-04-25T09:20:57.841Z,21.48
2019-04-25T09:23:28.554Z,21.93
2019-04-25T09:28:38.048Z,22.36
2019-04-25T09:31:08.195Z,22.14
2019-04-25T09:33:39.146Z,21.34
2019-04-25T09:36:09.733Z,20.49
2019-04-25T09:38:40.983Z,20.33
2019-04-25T09:41:13.856Z,19.57
2019-04-25T09:43:46.622Z,19.62
2019-04-25T09:46:25.124Z,19.66
2019-04-25T09:49:10.109Z,20.32
2019-04-25T09:52:03.794Z,21.06
2019-04-25T09:54:48.771Z,20.89
2019-04-25T09:57:36.890Z,21.77
2019-04-25T10:00:13.623Z,23.12
2019-04-25T10:02:47.022Z,22.86
2019-04-25T10:05:17.686Z,23.04
2019-04-25T10:07:48.967Z,25.61
2019-04-25T10:10:19.802Z,25.61
2019-04-25T10:12:50.516Z,25.96
2019-04-25T10:15:47.958Z,26.15
2019-04-25T10:18:18.731Z,25.64
2019-04-25T10:20:49.682Z,24.21
2019-04-25T10:23:21.016Z,23.47
2019-04-25T10:25:53.660Z,22.82
2019-04-25T10:28:24.800Z,22.44
2019-04-25T10:30:56.497Z,21.48
2019-04-25T10:33:27.972Z,21.17
2019-04-25T10:36:01.131Z,20.32
2019-04-25T10:38:33.601Z,19.78
2019-04-25T10:41:04.493Z,19.55
2019-04-25T10:43:36.476Z,19.39
2019-04-25T10:46:07.178Z,20.05
2019-04-25T10:48:39.911Z,21.28
2019-04-25T10:51:10.730Z,21.56
2019-04-25T10:53:42.068Z,21.23
2019-04-25T10:56:14.164Z,21.07
2019-04-25T10:58:46.662Z,20.78
2019-04-25T11:01:17.812Z,20.29
2019-04-25T11:04:08.912Z,20.75
2019-04-25T11:06:41.793Z,22.24
2019-04-25T11:09:20.119Z,23.86
2019-04-25T11:11:51.173Z,24.34
2019-04-25T11:14:23.784Z,25.89
2019-04-25T11:16:56.596Z,28.22
2019-04-25T11:19:27.235Z,27.79
2019-04-25T11:21:57.621Z,28.61
2019-04-25T11:24:28.188Z,28.61
2019-04-25T11:26:58.875Z,27.04
2019-04-25T11:29:29.278Z,27.16
2019-04-25T11:32:00.469Z,27.20
2019-04-25T11:34:31.213Z,26.40
2019-04-25T11:37:03.708Z,25.92
2019-04-25T11:39:47.293Z,24.08
2019-04-25T11:42:19.783Z,21.98
2019-04-25T11:44:50.396Z,21.98
2019-04-25T11:47:24.255Z,21.52
2019-04-25T11:49:55.794Z,21.61
2019-04-25T11:52:29.987Z,21.82
2019-04-25T11:54:59.037Z,22.46
2019-04-25T11:57:31.378Z,23.95
2019-04-25T12:00:01.931Z,24.62
2019-04-25T12:02:34.390Z,24.42
2019-04-25T12:05:06.536Z,23.64
2019-04-25T12:07:37.173Z,22.28
2019-04-25T12:10:08.368Z,22.28
2019-04-25T12:12:40.662Z,22.14
2019-04-25T12:15:13.230Z,22.08
2019-04-25T12:17:44.846Z,21.35
2019-04-25T12:20:15.384Z,21.28
2019-04-25T12:22:48.228Z,21.37
2019-04-25T12:25:18.898Z,21.04
2019-04-25T12:27:51.376Z,21.07
2019-04-25T12:30:36.416Z,21.30
2019-04-25T12:32:57.624Z,21.25
2019-04-25T12:35:28.293Z,21.12
2019-04-25T12:37:59.204Z,21.15
2019-04-25T12:40:29.540Z,21.37
2019-04-25T12:43:00.429Z,21.78
2019-04-25T12:45:53.135Z,21.78
2019-04-25T12:48:23.658Z,21.73
2019-04-25T12:50:55.423Z,21.93
2019-04-25T12:53:26.380Z,21.98
2019-04-25T12:55:57.115Z,22.30
2019-04-25T12:58:28.382Z,22.40
2019-04-25T13:01:00.056Z,22.56
2019-04-25T13:03:32.047Z,22.81
2019-04-25T13:06:03.176Z,23.01
2019-04-25T13:08:34.134Z,22.85
2019-04-25T13:11:08.553Z,23.02
2019-04-25T13:13:37.453Z,23.11
2019-04-25T13:16:07.919Z,22.89
2019-04-25T13:18:39.482Z,22.61
2019-04-25T13:21:10.252Z,22.74
2019-04-25T13:23:40.857Z,22.82
2019-04-25T13:26:11.283Z,22.72
2019-04-25T13:29:09.524Z,23.51
2019-04-25T13:31:59.109Z,23.51
2019-04-25T13:34:36.777Z,23.44
2019-04-25T13:37:07.803Z,23.62
2019-04-25T13:39:38.418Z,23.52
2019-04-25T13:42:09.166Z,23.24
2019-04-25T13:44:39.775Z,23.24
2019-04-25T13:47:14.034Z,23.11
2019-04-25T13:49:45.031Z,23.15
2019-04-25T13:52:17.716Z,23.10
2019-04-25T13:54:48.475Z,23.29
2019-04-25T13:57:20.760Z,23.47
2019-04-25T13:59:52.162Z,23.86
2019-04-25T14:02:24.678Z,23.79
2019-04-25T14:04:55.401Z,23.84
2019-04-25T14:07:27.329Z,23.24
2019-04-25T14:09:57.968Z,23.24
2019-04-25T14:12:32.449Z,22.92
2019-04-25T14:15:10.617Z,22.92
2019-04-25T14:18:05.040Z,22.79
2019-04-25T14:20:40.558Z,22.89
2019-04-25T14:23:13.446Z,23.19
2019-04-25T14:25:43.267Z,23.30
2019-04-25T14:28:14.214Z,23.09
2019-04-25T14:30:45.049Z,22.89
2019-04-25T14:33:15.649Z,22.53
2019-04-25T14:35:46.381Z,22.44
2019-04-25T14:38:16.980Z,22.70
2019-04-25T14:40:47.648Z,22.97
2019-04-25T14:43:17.920Z,23.20
2019-04-25T14:45:48.564Z,22.99
2019-04-25T14:48:18.907Z,21.90
2019-04-25T14:50:51.179Z,21.90
2019-04-25T14:53:28.024Z,21.58
2019-04-25T14:56:16.285Z,21.37
2019-04-25T14:58:47.181Z,21.15
2019-04-25T15:01:20.450Z,20.98
2019-04-25T15:03:51.186Z,20.82
2019-04-25T15:06:23.378Z,20.80
2019-04-25T15:08:55.620Z,20.79
2019-04-25T15:11:26.956Z,20.80
2019-04-25T15:13:57.711Z,20.83
2019-04-25T15:16:29.051Z,20.91
2019-04-25T15:19:00.236Z,21.00
2019-04-25T15:21:32.244Z,21.11
2019-04-25T15:24:02.994Z,21.10
2019-04-25T15:26:35.410Z,21.13
2019-04-25T15:29:06.203Z,21.32
2019-04-25T15:31:36.774Z,21.51
2019-04-25T15:34:07.365Z,21.59
2019-04-25T15:36:47.435Z,21.54
2019-04-25T15:39:39.807Z,21.41
2019-04-25T15:42:38.860Z,21.36
2019-04-25T15:45:31.285Z,21.30
2019-04-25T15:48:04.092Z,21.24
2019-04-25T15:50:35.065Z,21.10
2019-04-25T15:53:08.122Z,20.93
2019-04-25T15:55:38.726Z,20.90
2019-04-25T15:58:09.054Z,20.93
2019-04-25T16:00:40.141Z,20.92
2019-04-25T16:03:15.931Z,20.88
2019-04-25T16:05:46.510Z,20.71
2019-04-25T16:08:16.846Z,20.40
2019-04-25T16:10:47.407Z,20.18
2019-04-25T16:13:19.612Z,20.00
2019-04-25T16:15:50.585Z,19.96
2019-04-25T16:18:21.231Z,19.86
2019-04-25T16:20:51.825Z,19.88
2019-04-25T16:23:22.510Z,19.83
2019-04-25T16:25:52.946Z,19.69
2019-04-25T16:28:23.749Z,19.62
2019-04-25T16:30:54.171Z,19.61
2019-04-25T16:33:24.798Z,19.58
2019-04-25T16:35:58.058Z,19.55
2019-04-25T16:38:29.812Z,19.48
2019-04-25T16:41:00.364Z,19.33
2019-04-25T16:43:35.231Z,19.19
2019-04-25T16:46:05.832Z,18.91
2019-04-25T16:48:36.844Z,18.91
2019-04-25T16:51:07.450Z,18.77
2019-04-25T16:53:38.491Z,18.68
2019-04-25T16:56:09.072Z,18.67
2019-04-25T16:58:39.705Z,18.64
2019-04-25T17:01:12.375Z,18.56
2019-04-25T17:03:43.101Z,18.24
2019-04-25T17:06:14.419Z,18.24
2019-04-25T17:08:45.463Z,18.19
2019-04-25T17:11:17.860Z,18.19
2019-04-25T17:13:57.990Z,18.20
2019-04-25T17:16:46.406Z,18.20
2019-04-25T17:19:21.742Z,18.16
2019-04-25T17:21:52.381Z,18.12
2019-04-25T17:24:23.517Z,18.08
2019-04-25T17:26:54.148Z,18.00
2019-04-25T17:29:25.008Z,17.95
2019-04-25T17:32:14.284Z,17.94
2019-04-25T17:35:09.777Z,17.89
2019-04-25T17:37:46.547Z,17.78
2019-04-25T17:40:20.607Z,17.70
2019-04-25T17:42:51.455Z,17.62
2019-04-25T17:45:26.043Z,17.57
2019-04-25T17:47:56.396Z,17.52
2019-04-25T17:50:26.984Z,17.42
2019-04-25T17:52:57.525Z,17.32
2019-04-25T17:55:28.724Z,17.19
2019-04-25T17:58:00.097Z,17.09
2019-04-25T18:00:37.780Z,16.93
2019-04-25T18:03:10.862Z,16.66
2019-04-25T18:05:41.888Z,16.34
2019-04-25T18:08:12.328Z,16.11
2019-04-25T18:10:42.799Z,15.94
2019-04-25T18:13:14.120Z,15.80
2019-04-25T18:16:06.929Z,15.77
2019-04-25T18:18:47.350Z,15.83
2019-04-25T18:21:19.957Z,15.90
2019-04-25T18:24:27.668Z,15.96
2019-04-25T18:27:17.222Z,15.94
2019-04-25T18:29:49.620Z,15.90
2019-04-25T18:32:23.528Z,15.81
2019-04-25T18:34:59.056Z,15.74
2019-04-25T18:37:47.320Z,15.69
2019-04-25T18:40:28.568Z,15.66
2019-04-25T18:43:10.125Z,15.62
2019-04-25T18:45:44.475Z,15.60
2019-04-25T18:48:15.761Z,15.53
2019-04-25T18:50:46.788Z,15.41
2019-04-25T18:53:37.700Z,15.24
2019-04-25T18:56:19.242Z,15.05
2019-04-25T18:59:03.277Z,14.80
2019-04-25T19:01:44.501Z,14.53
2019-04-25T19:04:23.427Z,14.08
2019-04-25T19:06:58.299Z,13.06
2019-04-25T19:09:27.270Z,13.06
2019-04-25T19:11:59.767Z,12.83
2019-04-25T19:14:30.169Z,12.67
2019-04-25T19:17:02.233Z,12.50
2019-04-25T19:19:32.966Z,12.39
2019-04-25T19:22:05.247Z,12.25
2019-04-25T19:24:35.767Z,12.20
2019-04-25T19:27:06.434Z,12.17
2019-04-25T19:29:40.333Z,12.15
2019-04-25T19:32:11.758Z,12.07
2019-04-25T19:35:01.498Z,12.08
2019-04-25T19:37:51.037Z,12.07
2019-04-25T19:40:40.743Z,11.98
2019-04-25T19:43:25.659Z,11.98
2019-04-25T19:46:02.425Z,12.04
2019-04-25T19:48:29.580Z,11.96
2019-04-25T19:51:00.261Z,11.91
2019-04-25T19:53:34.330Z,11.88
2019-04-25T19:56:04.687Z,11.85
2019-04-25T19:58:35.103Z,11.84
2019-04-25T20:01:05.647Z,11.85
2019-04-25T20:03:58.485Z,11.84
2019-04-25T20:06:47.514Z,11.86
2019-04-25T20:09:39.754Z,11.87
2019-04-25T20:12:24.018Z,11.88
2019-04-25T20:14:57.885Z,11.80
2019-04-25T20:17:28.376Z,11.76
2019-04-25T20:19:59.268Z,11.71
2019-04-25T20:22:30.012Z,11.67
2019-04-25T20:25:03.302Z,11.62
2019-04-25T20:27:37.334Z,11.61
2019-04-25T20:30:08.295Z,11.57
2019-04-25T20:32:39.060Z,11.51
2019-04-25T20:35:14.455Z,11.45
2019-04-25T20:37:47.185Z,11.43
2019-04-25T20:40:18.142Z,11.41
2019-04-25T20:42:49.705Z,11.36
2019-04-25T20:45:25.818Z,11.35
2019-04-25T20:47:56.942Z,11.32
2019-04-25T20:50:30.840Z,11.32
2019-04-25T20:53:10.351Z,11.28
2019-04-25T20:55:42.569Z,11.25
2019-04-25T20:58:15.859Z,11.27
2019-04-25T21:00:49.751Z,11.27
2019-04-25T21:03:20.635Z,11.30
2019-04-25T21:06:00.266Z,11.31
2019-04-25T21:08:31.973Z,11.31
2019-04-25T21:11:02.650Z,11.17
2019-04-25T21:13:46.022Z,11.17
2019-04-25T21:16:33.785Z,11.16
2019-04-25T21:19:10.613Z,11.15
2019-04-25T21:21:42.325Z,11.13
2019-04-25T21:24:12.949Z,11.10
2019-04-25T21:26:43.277Z,11.09
2019-04-25T21:29:14.126Z,11.10
2019-04-25T21:31:44.790Z,11.12
2019-04-25T21:34:25.470Z,11.10
2019-04-25T21:36:47.930Z,11.09
2019-04-25T21:39:28.040Z,11.14
2019-04-25T21:42:08.563Z,11.15
2019-04-25T21:44:39.171Z,11.14
2019-04-25T21:47:09.536Z,11.12
2019-04-25T21:49:40.328Z,11.08
2019-04-25T21:52:10.972Z,11.07
2019-04-25T21:54:42.210Z,11.07
2019-04-25T21:57:12.685Z,11.07
2019-04-25T21:59:44.522Z,11.14
2019-04-25T22:02:15.215Z,11.15
2019-04-25T22:04:46.329Z,11.09
2019-04-25T22:07:16.902Z,11.09
2019-04-25T22:09:47.691Z,11.11
2019-04-25T22:12:18.549Z,11.13
2019-04-25T22:14:49.007Z,11.15
2019-04-25T22:17:19.306Z,11.17
2019-04-25T22:19:50.627Z,11.14
2019-04-25T22:22:22.199Z,11.11
2019-04-25T22:24:53.029Z,11.11
2019-04-25T22:27:28.870Z,11.03
2019-04-25T22:30:01.796Z,11.01
2019-04-25T22:32:59.495Z,10.98
2019-04-25T22:35:46.050Z,10.96
2019-04-25T22:38:16.888Z,10.95
2019-04-25T22:40:47.192Z,10.91
2019-04-25T22:43:17.881Z,10.91
2019-04-25T22:45:48.708Z,10.90
2019-04-25T22:48:26.016Z,10.91
2019-04-25T22:50:56.929Z,10.92
2019-04-25T22:53:27.230Z,10.90
2019-04-25T22:55:57.798Z,10.87
2019-04-25T22:58:28.204Z,10.85
2019-04-25T23:00:58.877Z,10.85
2019-04-25T23:03:37.921Z,10.85
2019-04-25T23:06:08.461Z,10.85
2019-04-25T23:08:39.220Z,10.84
2019-04-25T23:11:10.603Z,10.84
2019-04-25T23:13:41.133Z,10.82
2019-04-25T23:16:11.911Z,10.79
2019-04-25T23:18:44.404Z,10.73
2019-04-25T23:21:14.812Z,10.67
2019-04-25T23:23:45.888Z,10.68
2019-04-25T23:26:44.292Z,10.73
2019-04-25T23:29:16.529Z,10.77
2019-04-25T23:31:47.196Z,10.79
2019-04-25T23:34:17.992Z,10.83
2019-04-25T23:36:48.294Z,10.86
2019-04-25T23:39:18.722Z,10.88
2019-04-25T23:41:49.042Z,10.92
2019-04-25T23:44:19.607Z,10.95
2019-04-25T23:46:50.100Z,10.94
2019-04-25T23:49:20.371Z,10.88
2019-04-25T23:51:50.845Z,10.81
2019-04-25T23:54:24.710Z,10.73
2019-04-25T23:56:55.229Z,10.70
2019-04-25T23:59:25.538Z,10.64
